Time;durP1;ratioP1;P1;durP2;ratioP2;P2;SDS_P1;SDS_P2;PMS_P1;PMS_P2;Temp;Humidity;BMP_temperature;BMP_pressure;BME280_temperature;BME280_humidity;BME280_pressure;Samples;Min_cycle;Max_cycle;Signal;HPM_P1;HPM_P2
2023/07/02 00:00:09;;;;;;;14.93;5.18;;;19.00;99.90;;;;;;4967950;28;20062;-92
2023/07/02 00:02:38;;;;;;;15.50;5.28;;;19.00;99.90;;;;;;4983517;28;20422;-91
2023/07/02 00:05:04;;;;;;;15.68;6.18;;;19.00;99.90;;;;;;4982442;28;20018;-92
2023/07/02 00:07:30;;;;;;;16.08;5.95;;;18.90;99.90;;;;;;4968263;28;20033;-92
2023/07/02 00:09:56;;;;;;;14.10;5.35;;;18.90;99.90;;;;;;4983250;28;20029;-92
2023/07/02 00:12:23;;;;;;;15.60;6.82;;;18.90;99.90;;;;;;4983484;28;20030;-92
2023/07/02 00:14:52;;;;;;;17.88;7.45;;;18.90;99.90;;;;;;4983401;28;20022;-89
2023/07/02 00:17:18;;;;;;;15.77;6.55;;;18.90;99.90;;;;;;4968354;28;20022;-89
2023/07/02 00:19:46;;;;;;;15.15;7.60;;;18.90;99.90;;;;;;4982834;28;20384;-88
2023/07/02 00:22:12;;;;;;;16.17;7.07;;;18.80;99.90;;;;;;4998939;28;20113;-88
2023/07/02 00:24:38;;;;;;;18.70;7.65;;;18.80;99.90;;;;;;4999109;28;20042;-88
2023/07/02 00:27:04;;;;;;;21.50;8.35;;;18.80;99.90;;;;;;4982946;28;20491;-93
2023/07/02 00:29:29;;;;;;;18.98;8.05;;;18.80;99.90;;;;;;4984135;28;20022;-92
2023/07/02 00:31:55;;;;;;;19.45;7.78;;;18.70;99.90;;;;;;4983061;28;20085;-90
2023/07/02 00:34:21;;;;;;;20.20;8.02;;;18.70;99.90;;;;;;4982810;28;20030;-90
2023/07/02 00:36:46;;;;;;;19.90;7.97;;;18.80;99.90;;;;;;4966449;28;20555;-89
2023/07/02 00:39:12;;;;;;;25.17;8.13;;;18.80;99.90;;;;;;4982396;28;20030;-89
2023/07/02 00:41:40;;;;;;;20.13;8.15;;;18.80;99.90;;;;;;4998556;28;20454;-89
2023/07/02 00:44:05;;;;;;;17.75;7.60;;;18.70;99.90;;;;;;4998567;28;20100;-89
2023/07/02 00:46:31;;;;;;;17.75;8.85;;;18.70;99.90;;;;;;4966057;28;20486;-89
2023/07/02 00:48:58;;;;;;;22.67;9.15;;;18.70;99.90;;;;;;4999005;28;20049;-93
2023/07/02 00:51:26;;;;;;;18.33;7.72;;;18.70;99.90;;;;;;4982416;28;20030;-93
2023/07/02 00:53:54;;;;;;;17.98;6.88;;;18.70;99.90;;;;;;4998780;28;20046;-93
2023/07/02 00:56:22;;;;;;;19.52;6.90;;;18.80;99.90;;;;;;4966851;28;20496;-94
2023/07/02 00:58:50;;;;;;;15.43;6.45;;;18.80;99.90;;;;;;4998447;28;20052;-94
2023/07/02 01:01:21;;;;;;;15.27;6.78;;;18.70;99.90;;;;;;4982617;28;20030;-93
2023/07/02 01:03:55;;;;;;;16.52;6.78;;;18.70;99.90;;;;;;4998903;28;20040;-91
2023/07/02 01:06:35;;;;;;;18.23;6.63;;;18.70;99.90;;;;;;4998281;28;20022;-92
2023/07/02 01:09:03;;;;;;;14.68;6.05;;;18.70;99.90;;;;;;4998419;28;20105;-94
2023/07/02 01:11:41;;;;;;;17.85;6.85;;;18.70;99.90;;;;;;4998441;28;20022;-93
2023/07/02 01:14:34;;;;;;;16.30;7.05;;;18.60;99.90;;;;;;4998371;28;20061;-93
2023/07/02 01:17:03;;;;;;;16.95;7.28;;;18.60;99.90;;;;;;4997898;28;20036;-93
2023/07/02 01:19:52;;;;;;;23.75;7.30;;;18.60;99.90;;;;;;4982361;28;20030;-94
2023/07/02 01:22:20;;;;;;;18.85;7.38;;;18.50;99.90;;;;;;4998396;28;20028;-93
2023/07/02 01:24:47;;;;;;;18.58;7.05;;;18.50;99.90;;;;;;4998406;28;20033;-93
2023/07/02 01:27:15;;;;;;;13.55;7.25;;;18.50;99.90;;;;;;4982489;28;20385;-93
2023/07/02 01:29:42;;;;;;;20.35;7.93;;;18.40;99.90;;;;;;4999091;28;20022;-93
2023/07/02 01:32:10;;;;;;;20.02;7.68;;;18.40;99.90;;;;;;4967318;28;20119;-93
2023/07/02 01:34:36;;;;;;;18.15;7.32;;;18.30;99.90;;;;;;5001046;28;20018;-93
2023/07/02 01:37:04;;;;;;;16.70;7.85;;;18.30;99.90;;;;;;4998414;28;20057;-91
2023/07/02 01:39:29;;;;;;;16.88;8.07;;;18.20;99.90;;;;;;4987945;28;20026;-93
2023/07/02 01:42:06;;;;;;;20.02;8.20;;;18.20;99.90;;;;;;4981978;28;20088;-93
2023/07/02 01:44:32;;;;;;;16.40;7.28;;;18.10;99.90;;;;;;4998377;28;20025;-92
2023/07/02 01:46:58;;;;;;;15.32;7.22;;;18.10;99.90;;;;;;4982367;28;20124;-93
2023/07/02 01:49:25;;;;;;;15.15;7.22;;;18.00;99.90;;;;;;4982226;28;20030;-92
2023/07/02 01:51:52;;;;;;;17.55;8.10;;;18.00;99.90;;;;;;4981500;28;20049;-92
2023/07/02 01:54:18;;;;;;;17.00;8.52;;;18.00;99.90;;;;;;4982218;28;20030;-93
2023/07/02 01:56:44;;;;;;;21.75;8.50;;;17.90;99.90;;;;;;4998362;28;20033;-94
2023/07/02 01:59:11;;;;;;;16.65;7.88;;;17.90;99.90;;;;;;4966178;28;20030;-93
2023/07/02 02:01:40;;;;;;;17.95;7.88;;;17.80;99.90;;;;;;4997455;28;20029;-92
2023/07/02 02:04:07;;;;;;;20.38;7.85;;;17.80;99.90;;;;;;4997451;28;20025;-93
2023/07/02 02:06:33;;;;;;;21.90;8.50;;;17.80;99.90;;;;;;4997206;28;20029;-93
2023/07/02 02:08:59;;;;;;;17.80;8.32;;;17.70;99.90;;;;;;4981279;28;20121;-93
2023/07/02 02:11:24;;;;;;;23.88;8.52;;;17.60;99.90;;;;;;4981410;28;20439;-90
2023/07/02 02:13:50;;;;;;;18.58;7.85;;;17.60;99.90;;;;;;4964952;28;20120;-89
2023/07/02 02:16:16;;;;;;;19.02;8.52;;;17.60;99.90;;;;;;4980713;28;20048;-88
2023/07/02 02:18:42;;;;;;;21.25;8.02;;;17.50;99.90;;;;;;4980930;28;20480;-89
2023/07/02 02:21:07;;;;;;;16.50;7.85;;;17.50;99.90;;;;;;4964635;28;20565;-90
2023/07/02 02:23:33;;;;;;;19.00;7.90;;;17.50;99.90;;;;;;4997468;28;20077;-89
2023/07/02 02:25:59;;;;;;;16.98;7.70;;;17.40;99.90;;;;;;4996804;28;20466;-89
2023/07/02 02:28:25;;;;;;;17.15;7.97;;;17.40;99.90;;;;;;4996148;28;20037;-93
2023/07/02 02:30:50;;;;;;;19.77;8.02;;;17.40;99.90;;;;;;4980814;28;20179;-93
2023/07/02 02:33:16;;;;;;;18.95;7.68;;;17.40;99.90;;;;;;4981030;28;20397;-92
2023/07/02 02:35:42;;;;;;;18.52;7.90;;;17.40;99.90;;;;;;4981117;28;20049;-92
2023/07/02 02:38:08;;;;;;;21.27;8.48;;;17.40;99.90;;;;;;4964884;28;20033;-93
2023/07/02 02:40:34;;;;;;;20.20;7.93;;;17.30;99.90;;;;;;4997098;28;20065;-93
2023/07/02 02:43:00;;;;;;;18.83;8.73;;;17.30;99.90;;;;;;4981013;28;20473;-93
2023/07/02 02:45:25;;;;;;;16.17;7.20;;;17.30;99.90;;;;;;4980866;28;20034;-89
2023/07/02 02:47:51;;;;;;;18.02;7.32;;;17.30;99.90;;;;;;4996593;28;20366;-89
2023/07/02 02:50:17;;;;;;;22.88;8.30;;;17.20;99.90;;;;;;4964834;28;20029;-89
2023/07/02 02:52:43;;;;;;;16.00;7.85;;;17.20;99.90;;;;;;4996744;28;20082;-88
2023/07/02 02:55:10;;;;;;;23.73;8.82;;;17.30;99.90;;;;;;4980780;28;20030;-89
2023/07/02 02:57:36;;;;;;;13.90;7.68;;;17.20;99.90;;;;;;4996700;28;20543;-90
2023/07/02 03:00:04;;;;;;;17.05;7.68;;;17.20;99.90;;;;;;4980708;28;20033;-91
2023/07/02 03:02:30;;;;;;;20.00;7.97;;;17.20;99.90;;;;;;4965229;28;20026;-93
2023/07/02 03:04:56;;;;;;;13.18;6.70;;;17.10;99.90;;;;;;4965016;28;20049;-94
2023/07/02 03:07:22;;;;;;;20.17;8.43;;;17.10;99.90;;;;;;4980817;28;20358;-92
2023/07/02 03:09:48;;;;;;;17.55;7.57;;;17.10;99.90;;;;;;4980602;28;20384;-89
2023/07/02 03:12:13;;;;;;;16.83;8.02;;;17.00;99.90;;;;;;4980478;28;20018;-89
2023/07/02 03:14:39;;;;;;;18.25;7.78;;;17.00;99.90;;;;;;4980306;28;20084;-89
2023/07/02 03:17:05;;;;;;;18.63;8.02;;;17.00;99.90;;;;;;4997229;28;20053;-89
2023/07/02 03:19:31;;;;;;;19.73;7.63;;;17.00;99.90;;;;;;4981112;28;20109;-93
2023/07/02 03:21:56;;;;;;;19.52;8.48;;;17.10;99.90;;;;;;4996520;28;20030;-93
2023/07/02 03:24:22;;;;;;;23.50;9.90;;;17.10;99.90;;;;;;4980261;28;20034;-93
2023/07/02 03:26:47;;;;;;;17.00;7.47;;;17.10;99.90;;;;;;4980430;28;20026;-93
2023/07/02 03:29:13;;;;;;;17.73;8.50;;;17.10;99.90;;;;;;4964319;28;20553;-93
2023/07/02 03:31:39;;;;;;;15.10;7.13;;;17.10;99.90;;;;;;4964767;28;20488;-93
2023/07/02 03:34:09;;;;;;;18.80;8.30;;;17.10;99.90;;;;;;4980349;28;20469;-93
2023/07/02 03:36:38;;;;;;;19.40;8.40;;;17.10;99.90;;;;;;4997613;28;20040;-93
2023/07/02 03:39:04;;;;;;;20.88;8.50;;;17.10;99.90;;;;;;4996978;28;20105;-93
2023/07/02 03:41:31;;;;;;;19.90;8.30;;;17.10;99.90;;;;;;4984112;28;20026;-92
2023/07/02 03:43:56;;;;;;;17.60;7.55;;;17.10;99.90;;;;;;5000252;28;20053;-93
2023/07/02 03:46:22;;;;;;;18.80;8.95;;;17.10;99.90;;;;;;4984296;28;20060;-92
2023/07/02 03:48:48;;;;;;;18.58;8.02;;;17.10;99.90;;;;;;4994894;28;20022;-92
2023/07/02 03:51:14;;;;;;;18.30;8.60;;;17.10;99.90;;;;;;4979033;28;20038;-93
2023/07/02 03:53:40;;;;;;;20.02;8.32;;;17.10;99.90;;;;;;4985661;28;20131;-93
2023/07/02 03:56:06;;;;;;;17.35;7.95;;;17.10;99.90;;;;;;4970006;28;20432;-93
2023/07/02 03:58:32;;;;;;;14.82;7.57;;;17.10;99.90;;;;;;4989730;28;20052;-92
2023/07/02 04:00:57;;;;;;;19.05;8.23;;;17.00;99.90;;;;;;4984703;28;20026;-93
2023/07/02 04:03:23;;;;;;;20.00;8.13;;;17.00;99.90;;;;;;5003957;28;20013;-93
2023/07/02 04:05:49;;;;;;;18.02;7.78;;;17.00;99.90;;;;;;4997856;28;20465;-94
2023/07/02 04:08:15;;;;;;;22.05;8.63;;;17.00;99.90;;;;;;4968183;28;20116;-93
2023/07/02 04:10:41;;;;;;;19.63;7.07;;;16.90;99.90;;;;;;4968118;28;20026;-93
2023/07/02 04:13:07;;;;;;;19.38;7.85;;;16.90;99.90;;;;;;4999948;28;20100;-92
2023/07/02 04:15:33;;;;;;;18.92;7.53;;;16.90;99.90;;;;;;4983315;28;20504;-93
2023/07/02 04:17:59;;;;;;;16.70;7.60;;;16.90;99.90;;;;;;4967506;28;20049;-93
2023/07/02 04:20:25;;;;;;;18.58;7.55;;;16.90;99.90;;;;;;4983389;28;20061;-92
2023/07/02 04:22:51;;;;;;;22.63;7.63;;;16.90;99.90;;;;;;4983310;28;20117;-93
2023/07/02 04:25:17;;;;;;;15.50;7.75;;;16.90;99.90;;;;;;5000050;28;20535;-92
2023/07/02 04:27:43;;;;;;;18.52;8.02;;;16.80;99.90;;;;;;5000707;28;20022;-93
2023/07/02 04:30:10;;;;;;;21.00;8.30;;;16.80;99.90;;;;;;4984809;28;20033;-93
2023/07/02 04:32:39;;;;;;;19.35;8.10;;;16.80;99.90;;;;;;5000426;28;20564;-93
2023/07/02 04:35:06;;;;;;;21.02;8.07;;;16.80;99.90;;;;;;4984636;28;20088;-94
2023/07/02 04:37:31;;;;;;;18.92;7.72;;;16.80;99.90;;;;;;4984093;28;20481;-93
2023/07/02 04:39:57;;;;;;;21.60;7.72;;;16.80;99.90;;;;;;5000164;28;20026;-93
2023/07/02 04:42:27;;;;;;;19.73;8.50;;;16.80;99.90;;;;;;4968106;28;20469;-93
2023/07/02 04:44:53;;;;;;;19.90;8.07;;;16.80;99.90;;;;;;4967995;28;20034;-93
2023/07/02 04:47:19;;;;;;;22.95;8.30;;;16.80;99.90;;;;;;4967011;28;20029;-93
2023/07/02 04:49:45;;;;;;;24.30;8.18;;;16.80;99.90;;;;;;4983032;28;20396;-93
2023/07/02 04:52:11;;;;;;;24.48;8.10;;;16.80;99.90;;;;;;4981364;28;20058;-92
2023/07/02 04:54:37;;;;;;;19.30;7.70;;;16.80;99.90;;;;;;4982571;28;20032;-92
2023/07/02 04:57:03;;;;;;;22.45;8.73;;;16.80;99.90;;;;;;4982563;28;20038;-93
2023/07/02 04:59:28;;;;;;;24.05;8.60;;;16.80;99.90;;;;;;4966706;28;20022;-93
2023/07/02 05:01:54;;;;;;;20.55;8.27;;;16.80;99.90;;;;;;4966597;28;20036;-93
2023/07/02 05:04:19;;;;;;;23.88;8.43;;;16.80;99.90;;;;;;4966414;28;20018;-93
2023/07/02 05:06:45;;;;;;;23.13;8.52;;;16.80;99.90;;;;;;4966154;28;20496;-92
2023/07/02 05:09:11;;;;;;;27.05;9.30;;;16.80;99.90;;;;;;4966107;28;20022;-93
2023/07/02 05:11:37;;;;;;;23.58;8.13;;;16.80;99.90;;;;;;4966306;28;20026;-92
2023/07/02 05:14:02;;;;;;;19.98;8.13;;;16.80;99.90;;;;;;4967485;28;20031;-92
2023/07/02 05:16:28;;;;;;;24.90;8.23;;;16.80;99.90;;;;;;4963525;28;20031;-93
2023/07/02 05:18:54;;;;;;;23.90;8.32;;;16.80;99.90;;;;;;4963563;28;20034;-93
2023/07/02 05:21:20;;;;;;;23.65;9.57;;;16.80;99.90;;;;;;4962993;28;20026;-93
2023/07/02 05:23:47;;;;;;;22.45;9.15;;;16.80;99.90;;;;;;4978661;28;20086;-93
2023/07/02 05:26:12;;;;;;;24.65;9.65;;;16.80;99.90;;;;;;4962415;28;20034;-93
2023/07/02 05:28:38;;;;;;;26.55;8.80;;;16.80;99.90;;;;;;4962651;28;20089;-92
2023/07/02 05:31:04;;;;;;;24.88;8.98;;;16.80;99.90;;;;;;4946468;28;20035;-93
2023/07/02 05:33:32;;;;;;;26.48;8.25;;;16.80;99.90;;;;;;4962192;28;20037;-89
2023/07/02 05:35:57;;;;;;;25.13;8.07;;;16.80;99.90;;;;;;4962578;28;20022;-89
2023/07/02 05:38:24;;;;;;;26.08;8.45;;;16.80;99.90;;;;;;4978737;28;20033;-92
2023/07/02 05:40:50;;;;;;;23.48;9.13;;;16.80;99.90;;;;;;4978740;28;20142;-93
2023/07/02 05:43:15;;;;;;;24.88;9.45;;;16.90;99.90;;;;;;4966596;28;20027;-92
2023/07/02 05:45:41;;;;;;;26.95;8.68;;;16.90;99.90;;;;;;4979907;28;20029;-91
2023/07/02 05:48:07;;;;;;;34.35;9.88;;;16.90;99.90;;;;;;4993693;28;20054;-93
2023/07/02 05:50:32;;;;;;;24.67;8.60;;;16.90;99.90;;;;;;4946505;28;20030;-92
2023/07/02 05:52:58;;;;;;;25.60;9.27;;;16.90;99.90;;;;;;4943374;28;20039;-92
2023/07/02 05:55:24;;;;;;;22.90;8.20;;;16.90;99.90;;;;;;4943247;28;20094;-93
2023/07/02 05:57:49;;;;;;;25.55;9.05;;;16.90;99.90;;;;;;4959423;28;20051;-92
2023/07/02 06:00:16;;;;;;;25.30;9.30;;;17.00;99.90;;;;;;4959047;28;20034;-92
2023/07/02 06:02:41;;;;;;;24.20;8.73;;;17.00;99.90;;;;;;4959125;28;20030;-93
2023/07/02 06:05:07;;;;;;;25.67;9.82;;;17.00;99.90;;;;;;4959146;28;20034;-92
2023/07/02 06:07:33;;;;;;;27.58;8.82;;;17.00;99.90;;;;;;4958943;28;20438;-93
2023/07/02 06:09:59;;;;;;;23.30;8.13;;;17.00;99.90;;;;;;4942846;28;20019;-93
2023/07/02 06:12:24;;;;;;;27.23;9.70;;;17.00;99.90;;;;;;4958776;28;20564;-92
2023/07/02 06:14:50;;;;;;;23.10;8.38;;;17.00;99.90;;;;;;4958954;28;20027;-93
2023/07/02 06:17:16;;;;;;;20.65;8.32;;;17.10;99.90;;;;;;4958543;28;20382;-92
2023/07/02 06:19:41;;;;;;;18.88;7.30;;;17.10;99.90;;;;;;4944848;28;20059;-93
2023/07/02 06:22:07;;;;;;;24.52;8.35;;;17.20;99.90;;;;;;4963184;28;20173;-89
2023/07/02 06:24:33;;;;;;;23.75;8.52;;;17.20;99.90;;;;;;4967412;28;20035;-90
2023/07/02 06:26:59;;;;;;;24.73;8.48;;;17.20;99.90;;;;;;4983376;28;20119;-90
2023/07/02 06:29:24;;;;;;;20.33;7.50;;;17.20;99.90;;;;;;4981978;28;20023;-89
2023/07/02 06:31:50;;;;;;;21.77;7.63;;;17.20;99.90;;;;;;4978029;28;20057;-90
2023/07/02 06:34:16;;;;;;;20.40;7.93;;;17.20;99.90;;;;;;4978113;28;20034;-90
2023/07/02 06:36:42;;;;;;;18.38;7.85;;;17.20;99.90;;;;;;4945459;28;20097;-91
2023/07/02 06:39:09;;;;;;;21.02;7.45;;;17.20;99.90;;;;;;4961810;28;20032;-92
2023/07/02 06:41:35;;;;;;;19.98;7.25;;;17.30;99.90;;;;;;4946141;28;20469;-92
2023/07/02 06:44:01;;;;;;;21.23;7.95;;;17.30;99.90;;;;;;4961463;28;20076;-92
2023/07/02 06:46:27;;;;;;;19.30;7.65;;;17.30;99.90;;;;;;4961599;28;20054;-93
2023/07/02 06:48:52;;;;;;;27.40;7.85;;;17.40;99.90;;;;;;4945592;28;20026;-91
2023/07/02 06:51:19;;;;;;;16.05;7.22;;;17.40;99.90;;;;;;4961454;28;20030;-92
2023/07/02 06:53:45;;;;;;;25.40;7.65;;;17.40;99.90;;;;;;4955775;28;20053;-92
2023/07/02 06:56:11;;;;;;;18.02;6.72;;;17.40;99.90;;;;;;4961760;28;20026;-91
2023/07/02 07:01:58;;;;;;;23.65;7.95;;;17.40;99.90;;;;;;4992303;28;20536;-92
2023/07/02 07:04:24;;;;;;;19.65;6.82;;;17.40;99.90;;;;;;4942156;28;20027;-92
2023/07/02 07:06:50;;;;;;;18.67;6.65;;;17.50;99.90;;;;;;4953711;28;20041;-92
2023/07/02 07:09:17;;;;;;;16.25;6.65;;;17.50;99.90;;;;;;4991367;28;20477;-92
2023/07/02 07:11:48;;;;;;;17.30;6.47;;;17.60;99.90;;;;;;4962570;28;20052;-94
2023/07/02 07:14:14;;;;;;;17.77;6.63;;;17.60;99.90;;;;;;4959380;28;20034;-94
2023/07/02 07:16:40;;;;;;;16.77;6.28;;;17.50;99.90;;;;;;4945879;28;20023;-93
2023/07/02 07:19:07;;;;;;;18.85;7.43;;;17.50;99.90;;;;;;4945628;28;20514;-93
2023/07/02 07:21:34;;;;;;;16.42;6.70;;;17.50;99.90;;;;;;4945851;28;20027;-92
2023/07/02 07:23:59;;;;;;;17.52;5.97;;;17.60;99.90;;;;;;4930325;28;20027;-93
2023/07/02 07:26:25;;;;;;;16.42;6.03;;;17.60;99.90;;;;;;4930597;28;20034;-93
2023/07/02 07:28:51;;;;;;;17.80;7.47;;;17.60;99.90;;;;;;4929756;28;20075;-92
2023/07/02 07:31:16;;;;;;;15.65;5.90;;;17.60;99.90;;;;;;4929773;28;20035;-93
2023/07/02 07:33:42;;;;;;;16.83;6.88;;;17.60;99.90;;;;;;4961948;28;20019;-93
2023/07/02 07:36:08;;;;;;;17.10;6.55;;;17.70;99.90;;;;;;4945961;28;20106;-92
2023/07/02 07:38:33;;;;;;;18.88;6.47;;;17.70;99.90;;;;;;4946440;28;20487;-91
2023/07/02 07:40:59;;;;;;;15.30;6.20;;;17.70;99.90;;;;;;4931720;28;20023;-93
2023/07/02 07:43:24;;;;;;;15.20;5.70;;;17.70;99.90;;;;;;4965769;28;20042;-92
2023/07/02 07:45:50;;;;;;;15.55;6.45;;;17.80;99.90;;;;;;4964800;28;20027;-93
2023/07/02 07:48:16;;;;;;;20.00;6.78;;;17.80;99.90;;;;;;4964558;28;20080;-93
2023/07/02 07:50:41;;;;;;;15.30;7.18;;;17.90;99.90;;;;;;4964610;28;20030;-93
2023/07/02 07:53:07;;;;;;;20.83;6.43;;;17.90;99.90;;;;;;4964379;28;20058;-92
2023/07/02 07:55:33;;;;;;;14.95;6.15;;;18.00;99.90;;;;;;4964611;28;20029;-92
2023/07/02 07:57:58;;;;;;;18.10;7.13;;;18.10;99.90;;;;;;4980529;28;20508;-93
2023/07/02 08:00:25;;;;;;;15.27;6.50;;;18.10;99.90;;;;;;4980543;28;20039;-93
2023/07/02 08:02:52;;;;;;;15.98;6.57;;;18.20;99.90;;;;;;4981085;28;20022;-93
2023/07/02 08:05:18;;;;;;;15.25;6.15;;;18.30;99.90;;;;;;4964662;28;20026;-94
2023/07/02 08:07:44;;;;;;;16.73;6.32;;;18.30;99.90;;;;;;4981972;28;20034;-93
2023/07/02 08:10:10;;;;;;;19.27;6.50;;;18.40;99.90;;;;;;4980487;28;20038;-93
2023/07/02 08:12:36;;;;;;;19.00;7.13;;;18.40;99.90;;;;;;4964543;28;20033;-93
2023/07/02 08:15:01;;;;;;;17.58;6.97;;;18.40;99.90;;;;;;4980491;28;20117;-93
2023/07/02 08:17:27;;;;;;;19.27;6.30;;;18.40;99.90;;;;;;4997296;28;20117;-93
2023/07/02 08:19:53;;;;;;;15.90;5.85;;;18.40;99.90;;;;;;4980389;28;20018;-93
2023/07/02 08:22:19;;;;;;;16.25;6.20;;;18.50;99.90;;;;;;4980467;28;20076;-93
2023/07/02 08:24:45;;;;;;;15.93;6.30;;;18.50;99.90;;;;;;4964686;28;20211;-93
2023/07/02 08:27:13;;;;;;;16.27;6.10;;;18.50;99.90;;;;;;4979514;28;20038;-93
2023/07/02 08:29:39;;;;;;;12.50;5.30;;;18.70;99.90;;;;;;4988227;28;20027;-92
2023/07/02 08:32:05;;;;;;;14.13;5.35;;;18.70;99.90;;;;;;4988730;28;20030;-93
2023/07/02 08:34:31;;;;;;;13.13;5.93;;;18.80;99.90;;;;;;4985756;28;20104;-93
2023/07/02 08:36:56;;;;;;;14.00;6.10;;;18.80;99.90;;;;;;4980309;28;20431;-93
2023/07/02 08:39:22;;;;;;;14.60;5.78;;;18.80;99.90;;;;;;4980439;28;20389;-93
2023/07/02 08:41:48;;;;;;;14.38;6.03;;;18.80;99.90;;;;;;4980532;28;20030;-92
2023/07/02 08:44:19;;;;;;;15.43;5.85;;;18.90;99.90;;;;;;4980578;28;20049;-93
2023/07/02 08:46:44;;;;;;;15.65;5.97;;;18.90;99.90;;;;;;4980258;28;20030;-93
2023/07/02 08:49:10;;;;;;;14.40;5.53;;;18.90;99.90;;;;;;4980292;28;20018;-93
2023/07/02 08:51:36;;;;;;;19.67;5.68;;;18.90;99.90;;;;;;4967497;28;20031;-92
2023/07/02 08:54:03;;;;;;;11.73;5.38;;;19.00;99.90;;;;;;4987800;28;20050;-92
2023/07/02 08:56:29;;;;;;;13.43;5.22;;;19.00;99.90;;;;;;4964358;28;20041;-91
2023/07/02 08:58:56;;;;;;;12.65;5.53;;;19.10;99.90;;;;;;4980910;28;20053;-92
2023/07/02 09:01:21;;;;;;;14.23;5.00;;;19.10;99.90;;;;;;4980172;28;20176;-92
2023/07/02 09:03:48;;;;;;;12.13;4.97;;;19.20;99.90;;;;;;4963725;28;20113;-91
2023/07/02 09:06:18;;;;;;;11.63;5.32;;;19.20;99.90;;;;;;4980580;28;20065;-94
2023/07/02 09:08:44;;;;;;;13.75;5.68;;;19.20;99.90;;;;;;4981801;28;20081;-93
2023/07/02 09:11:17;;;;;;;10.85;4.57;;;19.30;99.90;;;;;;4951195;28;20022;-92
2023/07/02 09:14:09;;;;;;;13.30;5.50;;;19.30;99.50;;;;;;4983962;28;20030;-92
2023/07/02 09:16:37;;;;;;;14.80;5.82;;;19.40;98.90;;;;;;4970025;28;20560;-89
2023/07/02 09:19:04;;;;;;;11.23;5.05;;;19.40;98.30;;;;;;4949992;28;20604;-90
2023/07/02 09:21:44;;;;;;;10.80;4.65;;;19.40;98.40;;;;;;4947012;28;20037;-90
2023/07/02 09:24:22;;;;;;;10.60;4.60;;;19.50;98.50;;;;;;4978729;28;20038;-91
2023/07/02 09:26:50;;;;;;;12.88;5.35;;;19.60;97.90;;;;;;4962317;28;20473;-88
2023/07/02 09:29:21;;;;;;;11.25;5.03;;;19.50;97.80;;;;;;4977979;28;20014;-87
2023/07/02 09:31:48;;;;;;;15.40;5.65;;;19.50;97.60;;;;;;4978576;28;20030;-89
2023/07/02 09:34:14;;;;;;;10.88;5.30;;;19.60;97.50;;;;;;4959049;28;20064;-88
2023/07/02 09:36:41;;;;;;;14.32;5.63;;;19.60;97.60;;;;;;4974669;28;20097;-88
2023/07/02 09:39:19;;;;;;;14.45;4.90;;;19.60;97.40;;;;;;4960008;28;20037;-88
2023/07/02 09:41:48;;;;;;;14.50;5.30;;;19.70;97.40;;;;;;4975012;28;20065;-90
2023/07/02 09:44:15;;;;;;;10.70;5.00;;;19.70;97.20;;;;;;4984189;28;20045;-88
2023/07/02 09:46:53;;;;;;;11.38;4.88;;;19.70;97.30;;;;;;4961895;28;20031;-88
2023/07/02 09:49:22;;;;;;;15.05;5.55;;;19.80;96.60;;;;;;4961287;28;20022;-87
2023/07/02 09:51:48;;;;;;;11.57;4.97;;;19.80;96.20;;;;;;4963689;28;20094;-89
2023/07/02 09:54:15;;;;;;;12.98;4.57;;;19.80;96.40;;;;;;4947373;28;20078;-89
2023/07/02 09:56:40;;;;;;;11.45;4.82;;;19.80;96.20;;;;;;4978270;28;20026;-89
2023/07/02 09:59:06;;;;;;;10.82;4.63;;;19.80;96.30;;;;;;4962869;28;20034;-90
2023/07/02 10:01:32;;;;;;;11.18;4.68;;;19.90;96.40;;;;;;4978765;28;20033;-92
2023/07/02 10:03:57;;;;;;;15.13;5.28;;;19.90;95.90;;;;;;4945702;28;20026;-89
2023/07/02 10:07:03;;;;;;;13.02;5.15;;;20.00;95.30;;;;;;4961233;28;20041;-89
2023/07/02 10:09:40;;;;;;;17.67;4.50;;;20.00;95.00;;;;;;4977828;28;20026;-89
2023/07/02 10:12:20;;;;;;;12.48;4.32;;;20.10;94.80;;;;;;4977567;28;20025;-89
2023/07/02 10:14:47;;;;;;;11.57;4.20;;;20.20;94.10;;;;;;4979607;28;20030;-89
2023/07/02 10:17:30;;;;;;;10.93;4.10;;;20.30;94.00;;;;;;4962908;28;20065;-90
2023/07/02 10:19:58;;;;;;;9.13;4.20;;;20.30;93.60;;;;;;4994067;28;20037;-89
2023/07/02 10:22:24;;;;;;;8.35;4.35;;;20.30;93.70;;;;;;4976290;28;20106;-89
2023/07/02 10:25:03;;;;;;;7.28;3.92;;;20.30;93.70;;;;;;4943932;28;20054;-89
2023/07/02 10:27:36;;;;;;;8.88;3.67;;;20.30;93.60;;;;;;4977997;28;20109;-89
2023/07/02 10:30:06;;;;;;;13.43;4.57;;;20.30;93.10;;;;;;4978649;28;20089;-89
2023/07/02 10:32:36;;;;;;;7.60;4.05;;;20.40;93.00;;;;;;4959052;28;20062;-89
2023/07/02 10:35:16;;;;;;;15.82;4.57;;;20.40;93.10;;;;;;4958253;28;20019;-89
2023/07/02 10:37:42;;;;;;;8.10;3.90;;;20.30;92.30;;;;;;4946254;28;20072;-88
2023/07/02 10:40:09;;;;;;;11.57;4.03;;;20.30;92.00;;;;;;4933012;28;20117;-89
2023/07/02 10:42:49;;;;;;;10.43;3.80;;;20.30;91.60;;;;;;4942691;28;20031;-89
2023/07/02 10:45:15;;;;;;;10.80;4.78;;;20.30;91.60;;;;;;4942128;28;20059;-89
2023/07/02 10:47:41;;;;;;;10.52;4.22;;;20.30;92.00;;;;;;4958727;28;20023;-89
2023/07/02 10:50:15;;;;;;;10.77;4.45;;;20.30;92.60;;;;;;4944583;28;20023;-91
2023/07/02 10:52:41;;;;;;;9.95;4.00;;;20.40;92.30;;;;;;4951875;28;20043;-91
2023/07/02 10:55:07;;;;;;;11.27;4.95;;;20.40;91.80;;;;;;4965622;28;20110;-91
2023/07/02 10:57:33;;;;;;;10.32;3.90;;;20.40;91.20;;;;;;4965733;28;20041;-91
2023/07/02 11:00:07;;;;;;;9.95;3.95;;;20.40;91.00;;;;;;4965889;28;20061;-91
2023/07/02 11:02:37;;;;;;;9.80;4.25;;;20.40;91.20;;;;;;4966039;28;20142;-91
2023/07/02 11:05:06;;;;;;;8.43;3.78;;;20.40;91.30;;;;;;4981616;28;20109;-89
2023/07/02 11:07:33;;;;;;;9.45;3.95;;;20.40;91.50;;;;;;4965520;28;20032;-89
2023/07/02 11:09:58;;;;;;;9.07;4.03;;;20.40;91.70;;;;;;4980912;28;20023;-89
2023/07/02 11:12:28;;;;;;;9.90;4.03;;;20.50;91.60;;;;;;4949454;28;20045;-90
2023/07/02 11:14:54;;;;;;;17.70;4.43;;;20.50;91.30;;;;;;4980720;28;20026;-90
2023/07/02 11:17:25;;;;;;;11.20;4.20;;;20.50;91.60;;;;;;4964884;28;20133;-89
2023/07/02 11:19:51;;;;;;;;;;;20.60;91.40;;;;;;4981239;28;20027;-92
2023/07/02 11:22:16;;;;;;;8.07;4.00;;;20.60;90.80;;;;;;5016553;28;20352;-92
2023/07/02 11:24:42;;;;;;;7.65;3.80;;;20.60;90.60;;;;;;4972028;28;20018;-92
2023/07/02 11:27:08;;;;;;;9.30;4.07;;;20.60;90.60;;;;;;4968145;28;20933;-92
2023/07/02 11:29:35;;;;;;;9.27;4.30;;;20.60;91.00;;;;;;4984314;28;20029;-90
2023/07/02 11:32:13;;;;;;;9.90;4.35;;;20.70;90.80;;;;;;4984958;28;20160;-92
2023/07/02 11:34:40;;;;;;;10.77;4.28;;;20.70;90.30;;;;;;4984993;28;20489;-92
2023/07/02 11:37:05;;;;;;;8.90;4.07;;;20.70;90.30;;;;;;4984811;28;20389;-92
2023/07/02 11:39:32;;;;;;;7.72;3.33;;;20.80;90.60;;;;;;4985156;28;20026;-92
2023/07/02 11:41:57;;;;;;;11.10;3.85;;;20.80;90.60;;;;;;5000075;28;20025;-94
2023/07/02 11:44:23;;;;;;;8.98;4.07;;;20.90;90.30;;;;;;4984033;28;20495;-94
2023/07/02 11:46:49;;;;;;;9.23;3.55;;;20.90;89.60;;;;;;4968034;28;20022;-92
2023/07/02 11:49:15;;;;;;;12.30;3.88;;;20.90;89.00;;;;;;4967844;28;20503;-92
2023/07/02 11:51:48;;;;;;;7.75;3.67;;;21.00;88.80;;;;;;5017673;28;20034;-91
2023/07/02 11:54:15;;;;;;;7.90;3.63;;;21.00;89.20;;;;;;4984472;28;20060;-92
2023/07/02 11:56:42;;;;;;;10.15;3.55;;;21.10;88.80;;;;;;4981907;28;20043;-90
2023/07/02 11:59:08;;;;;;;8.15;3.78;;;21.10;87.30;;;;;;4999498;28;20403;-89
2023/07/02 12:01:34;;;;;;;9.82;4.47;;;21.10;88.00;;;;;;5000328;28;20063;-89
2023/07/02 12:04:00;;;;;;;8.75;3.63;;;21.20;87.40;;;;;;5000548;28;20127;-90
2023/07/02 12:06:26;;;;;;;11.73;4.05;;;21.20;87.50;;;;;;4983179;28;20037;-90
2023/07/02 12:08:51;;;;;;;8.02;3.65;;;21.20;87.30;;;;;;4999782;28;20488;-89
2023/07/02 12:11:19;;;;;;;8.68;3.85;;;21.30;87.10;;;;;;4982976;28;20038;-92
2023/07/02 12:13:44;;;;;;;11.90;3.72;;;21.30;86.30;;;;;;4999578;28;20114;-91
2023/07/02 12:16:10;;;;;;;8.13;3.60;;;21.30;83.70;;;;;;4983499;28;20166;-91
2023/07/02 12:18:36;;;;;;;10.95;3.47;;;21.40;83.10;;;;;;4983427;28;20034;-90
2023/07/02 12:21:01;;;;;;;6.88;3.47;;;21.40;82.80;;;;;;4983534;28;20137;-91
2023/07/02 12:23:27;;;;;;;10.38;3.53;;;21.50;83.10;;;;;;4982575;28;20096;-93
2023/07/02 12:25:53;;;;;;;8.10;3.63;;;21.50;82.60;;;;;;4985224;28;20060;-92
2023/07/02 12:28:18;;;;;;;9.57;3.90;;;21.60;82.90;;;;;;5003683;28;20053;-91
2023/07/02 12:30:44;;;;;;;6.88;3.75;;;21.60;82.00;;;;;;4984799;28;20447;-91
2023/07/02 12:33:10;;;;;;;7.90;3.65;;;21.70;81.40;;;;;;4954127;28;20185;-90
2023/07/02 12:35:36;;;;;;;9.50;3.90;;;21.70;81.10;;;;;;4954650;28;20030;-92
2023/07/02 12:38:03;;;;;;;6.07;3.38;;;21.80;82.00;;;;;;4984411;28;20831;-92
2023/07/02 12:40:29;;;;;;;8.15;3.33;;;21.80;81.70;;;;;;4989394;28;20358;-91